Time;durP1;ratioP1;P1;durP2;ratioP2;P2;SDS_P1;SDS_P2;PMS_P1;PMS_P2;Temp;Humidity;BMP_temperature;BMP_pressure;BME280_temperature;BME280_humidity;BME280_pressure;Samples;Min_cycle;Max_cycle;Signal;HPM_P1;HPM_P2
2023/09/06 00:00:26;;;;;;;386.48;307.25;;;;;;;19.88;99.37;99939.13;289235;34;8344;-75
2023/09/06 00:00:42;;;;;;;387.52;306.45;;;;;;;19.88;99.27;99939.13;291552;33;6840;-75
2023/09/06 00:00:53;;;;;;;385.98;302.27;;;;;;;19.88;99.25;99933.81;286185;34;6935;-75
2023/09/06 00:01:04;;;;;;;386.15;301.45;;;;;;;19.86;99.33;99931.28;283084;34;5005;-75
2023/09/06 00:01:15;;;;;;;387.98;305.63;;;;;;;19.87;99.49;99937.44;280365;34;5161;-75
2023/09/06 00:01:27;;;;;;;390.40;306.17;;;;;;;19.87;99.42;99932.13;278185;35;827;-77
2023/09/06 00:01:39;;;;;;;387.98;304.38;;;;;;;19.87;99.37;99934.78;279894;35;6890;-77
2023/09/06 00:01:50;;;;;;;384.30;303.13;;;;;;;19.86;99.24;99936.59;279122;34;9084;-77
2023/09/06 00:03:37;;;;;;;373.11;282.68;;;;;;;19.85;99.15;99939.34;2500742;27;20482;-77
2023/09/06 00:03:48;;;;;;;380.53;299.00;;;;;;;19.84;98.78;99942.97;354384;27;1251;-77
2023/09/06 00:03:58;;;;;;;381.08;299.65;;;;;;;19.86;98.85;99946.38;351541;28;823;-77
2023/09/06 00:04:09;;;;;;;383.67;302.03;;;;;;;19.86;99.09;99946.38;350022;28;1312;-77
2023/09/06 00:04:19;;;;;;;382.97;301.60;;;;;;;19.87;99.07;99942.75;348761;28;820;-76
2023/09/06 00:04:29;;;;;;;381.53;298.43;;;;;;;19.87;99.00;99937.44;347451;28;912;-76
2023/09/06 00:04:41;;;;;;;381.37;302.17;;;;;;;19.88;99.08;99939.13;348785;28;808;-76
2023/09/06 00:04:51;;;;;;;381.67;302.95;;;;;;;19.89;98.87;99946.13;348734;28;959;-76
2023/09/06 00:05:01;;;;;;;384.40;309.77;;;;;;;19.89;98.89;99946.13;349209;28;1057;-76
2023/09/06 00:05:12;;;;;;;382.00;301.40;;;;;;;19.87;98.77;99937.44;348687;28;1223;-76
2023/09/06 00:05:22;;;;;;;381.75;298.58;;;;;;;19.87;98.74;99943.59;350254;28;1756;-76
2023/09/06 00:05:32;;;;;;;380.90;296.00;;;;;;;19.87;98.50;99943.59;349474;28;1399;-76
2023/09/06 00:05:43;;;;;;;386.63;305.13;;;;;;;19.88;98.91;99942.63;347646;28;978;-76
2023/09/06 00:05:53;;;;;;;387.10;304.60;;;;;;;19.89;98.68;99946.13;347266;28;895;-76
2023/09/06 00:06:04;;;;;;;385.75;301.63;;;;;;;19.90;98.66;99945.19;345865;28;1370;-76
2023/09/06 00:06:14;;;;;;;380.60;294.20;;;;;;;19.90;98.89;99942.53;346066;28;880;-76
2023/09/06 00:06:25;;;;;;;381.02;297.75;;;;;;;19.89;98.71;99941.69;348687;28;959;-76
2023/09/06 00:06:35;;;;;;;379.97;297.20;;;;;;;19.91;98.59;99944.22;348723;28;1288;-76
2023/09/06 00:06:45;;;;;;;379.83;301.23;;;;;;;19.92;98.54;99945.91;348703;28;899;-76
2023/09/06 00:06:56;;;;;;;378.27;296.95;;;;;;;19.91;98.66;99938.91;347206;28;1338;-76
2023/09/06 00:07:06;;;;;;;381.03;302.70;;;;;;;19.90;98.50;99938.06;345953;28;1247;-76
2023/09/06 00:07:17;;;;;;;384.67;309.23;;;;;;;19.91;98.66;99938.91;345765;28;1243;-76
2023/09/06 00:07:27;;;;;;;386.67;311.93;;;;;;;19.91;98.64;99945.06;347195;28;1373;-76
2023/09/06 00:07:37;;;;;;;386.27;306.73;;;;;;;19.90;98.36;99942.53;349129;28;1589;-76
2023/09/06 00:07:48;;;;;;;383.67;300.50;;;;;;;19.89;98.44;99943.47;351375;28;1723;-76
2023/09/06 00:07:58;;;;;;;382.57;297.43;;;;;;;19.89;98.26;99941.69;351574;28;1274;-76
2023/09/06 00:08:13;;;;;;;382.85;301.50;;;;;;;19.90;98.41;99942.53;350100;28;1353;-76
2023/09/06 00:08:24;;;;;;;381.35;298.50;;;;;;;19.90;98.10;99940.72;347401;28;987;-76
2023/09/06 00:08:34;;;;;;;383.03;300.63;;;;;;;19.90;98.42;99934.56;349717;28;1418;-77
2023/09/06 00:08:45;;;;;;;382.60;299.73;;;;;;;19.91;98.60;99941.56;347496;28;1230;-76
2023/09/06 00:08:55;;;;;;;382.70;297.17;;;;;;;19.91;98.25;99944.22;345882;28;3295;-76
2023/09/06 00:09:06;;;;;;;382.50;298.07;;;;;;;19.92;98.20;99935.28;345668;28;1350;-75
2023/09/06 00:09:16;;;;;;;385.65;306.02;;;;;;;19.91;98.43;99939.75;346964;28;1438;-75
2023/09/06 00:09:27;;;;;;;386.43;309.10;;;;;;;19.90;98.26;99932.75;347285;28;1135;-75
2023/09/06 00:09:37;;;;;;;385.53;305.13;;;;;;;19.92;98.38;99940.59;347328;28;954;-76
2023/09/06 00:09:47;;;;;;;385.33;301.98;;;;;;;19.91;98.12;99938.91;343070;28;1308;-76
2023/09/06 00:09:58;;;;;;;383.07;296.40;;;;;;;19.91;98.13;99942.41;341648;28;1393;-76
2023/09/06 00:10:09;;;;;;;382.38;295.17;;;;;;;19.92;98.29;99941.44;338974;29;1205;-76
2023/09/06 00:10:19;;;;;;;382.70;294.80;;;;;;;19.91;98.14;99938.91;343085;28;1150;-76
2023/09/06 00:10:30;;;;;;;381.53;293.57;;;;;;;19.89;98.22;99949.66;343222;28;1360;-76
2023/09/06 00:10:44;;;;;;;382.45;296.88;;;;;;;19.89;98.24;99935.50;340599;29;857;-76
2023/09/06 00:10:54;;;;;;;382.77;302.35;;;;;;;19.89;98.09;99941.69;335849;29;1103;-76
2023/09/06 00:11:05;;;;;;;385.13;309.63;;;;;;;19.90;98.22;99939.88;337708;29;1289;-76
2023/09/06 00:11:16;;;;;;;381.97;300.30;;;;;;;19.88;98.15;99933.81;337761;29;849;-76
2023/09/06 00:11:27;;;;;;;382.58;299.48;;;;;;;19.88;98.25;99939.13;336487;29;1273;-76
2023/09/06 00:11:39;;;;;;;384.17;300.92;;;;;;;19.85;98.21;99939.34;338076;29;885;-76
2023/09/06 00:11:50;;;;;;;383.77;302.02;;;;;;;19.82;98.15;99945.75;340022;29;1588;-76
2023/09/06 00:12:00;;;;;;;384.58;304.40;;;;;;;19.82;98.02;99945.75;341491;28;1394;-76
2023/09/06 00:12:10;;;;;;;385.67;307.77;;;;;;;19.83;98.36;99936.81;340662;29;945;-76
2023/09/06 00:12:21;;;;;;;388.00;311.90;;;;;;;19.83;98.36;99942.13;336657;29;1617;-76
2023/09/06 00:12:31;;;;;;;387.63;310.83;;;;;;;19.84;98.45;99937.66;335736;29;1907;-76
2023/09/06 00:12:42;;;;;;;385.00;301.97;;;;;;;19.84;98.16;99942.97;336821;29;1985;-76
2023/09/06 00:12:52;;;;;;;383.70;301.07;;;;;;;19.85;98.46;99939.34;336308;29;1860;-76
2023/09/06 00:13:06;;;;;;;382.15;299.58;;;;;;;19.84;98.14;99938.50;337644;29;1263;-77
2023/09/06 00:13:19;;;;;;;382.08;303.50;;;;;;;19.84;98.29;99937.66;335913;29;1427;-76
2023/09/06 00:13:31;;;;;;;381.95;300.35;;;;;;;19.84;98.47;99938.50;337164;29;1678;-76
2023/09/06 00:13:42;;;;;;;384.45;299.95;;;;;;;19.82;98.03;99934.28;335045;29;1804;-76
2023/09/06 00:13:53;;;;;;;385.00;301.97;;;;;;;19.80;98.48;99934.38;332812;29;1236;-76
2023/09/06 00:14:04;;;;;;;385.98;305.42;;;;;;;19.82;98.24;99944.91;326958;29;2035;-76
2023/09/06 00:14:15;;;;;;;386.00;307.87;;;;;;;19.81;98.39;99938.72;325255;30;2066;-76
2023/09/06 00:14:29;;;;;;;384.27;304.42;;;;;;;19.84;98.48;99942.97;325533;30;895;-76
2023/09/06 00:14:39;;;;;;;383.27;298.85;;;;;;;19.83;98.46;99934.16;324308;30;895;-76
2023/09/06 00:14:50;;;;;;;383.13;299.27;;;;;;;19.83;98.63;99938.63;319422;30;1644;-76
2023/09/06 00:15:00;;;;;;;383.40;301.53;;;;;;;19.83;98.26;99942.13;320693;30;1034;-76
2023/09/06 00:15:11;;;;;;;384.20;302.55;;;;;;;19.82;98.21;99935.13;324244;30;1309;-76
2023/09/06 00:15:21;;;;;;;384.95;304.38;;;;;;;19.83;98.40;99938.63;321786;30;1317;-76
2023/09/06 00:15:32;;;;;;;385.07;304.77;;;;;;;19.83;98.18;99936.81;322909;30;1907;-76
2023/09/06 00:15:42;;;;;;;384.95;305.70;;;;;;;19.83;98.29;99934.16;320450;30;1987;-76
2023/09/06 00:15:53;;;;;;;385.37;302.87;;;;;;;19.83;98.20;99935.97;319483;30;832;-76
2023/09/06 00:16:03;;;;;;;385.33;298.95;;;;;;;19.83;98.55;99935.97;319186;30;2467;-76
2023/09/06 00:16:15;;;;;;;383.83;293.47;;;;;;;19.84;98.49;99937.66;318539;30;2976;-76
2023/09/06 00:16:26;;;;;;;385.30;299.77;;;;;;;19.83;98.16;99941.28;323034;30;904;-76
2023/09/06 00:16:36;;;;;;;386.95;306.08;;;;;;;19.82;98.62;99934.28;320691;30;2042;-76
2023/09/06 00:16:46;;;;;;;384.53;301.47;;;;;;;19.80;98.33;99936.19;323165;30;2667;-76
2023/09/06 00:16:58;;;;;;;383.55;300.30;;;;;;;19.82;98.61;99934.28;324065;30;1727;-76
2023/09/06 00:17:09;;;;;;;384.05;298.67;;;;;;;19.82;98.34;99939.59;325556;30;915;-76
2023/09/06 00:17:19;;;;;;;386.10;302.48;;;;;;;19.81;98.28;99936.06;324104;30;1228;-76
2023/09/06 00:17:29;;;;;;;386.63;303.47;;;;;;;19.80;98.44;99941.50;320540;30;1694;-76
2023/09/06 00:17:41;;;;;;;384.05;302.85;;;;;;;19.79;98.58;99937.16;319484;30;1391;-76
2023/09/06 00:17:51;;;;;;;383.88;303.60;;;;;;;19.80;98.39;99937.03;320380;30;2043;-76
2023/09/06 00:18:05;;;;;;;384.07;304.73;;;;;;;19.80;98.42;99937.03;314853;31;3309;-76
2023/09/06 00:18:16;;;;;;;386.13;308.45;;;;;;;19.83;98.58;99943.94;314723;31;3382;-75
2023/09/06 00:18:27;;;;;;;385.23;305.10;;;;;;;19.82;98.26;99940.44;313952;31;1193;-75
2023/09/06 00:18:37;;;;;;;382.40;297.83;;;;;;;19.83;98.31;99938.63;310585;31;1453;-76
2023/09/06 00:18:48;;;;;;;382.38;296.00;;;;;;;19.82;98.38;99942.25;308577;31;3772;-76
2023/09/06 00:18:59;;;;;;;384.30;299.63;;;;;;;19.81;98.35;99943.19;308696;31;3463;-76
2023/09/06 00:19:10;;;;;;;384.10;295.85;;;;;;;19.82;98.63;99944.91;309417;31;1469;-76
2023/09/06 00:19:20;;;;;;;384.13;295.73;;;;;;;19.82;98.22;99942.25;307001;31;2482;-76
2023/09/06 00:19:30;;;;;;;387.42;297.00;;;;;;;19.83;98.40;99946.59;305894;32;2057;-76
2023/09/06 00:19:42;;;;;;;388.03;300.93;;;;;;;19.83;98.53;99938.63;304313;32;1844;-76
2023/09/06 00:19:52;;;;;;;387.30;308.23;;;;;;;19.84;98.66;99938.50;304089;32;916;-76
2023/09/06 00:20:46;;;;;;;379.95;299.33;;;;;;;19.86;98.18;99944.56;301459;32;4738;-77
2023/09/06 00:20:57;;;;;;;381.50;305.25;;;;;;;19.87;98.16;99945.41;299601;32;4837;-77
2023/09/06 00:21:08;;;;;;;380.48;302.27;;;;;;;19.88;98.18;99944.44;296171;33;1097;-77
2023/09/06 00:21:19;;;;;;;382.10;305.27;;;;;;;19.88;98.21;99941.78;292646;33;5044;-77
2023/09/06 00:21:29;;;;;;;383.20;305.00;;;;;;;19.89;98.12;99940.81;291376;33;3773;-77
2023/09/06 00:21:41;;;;;;;386.50;311.40;;;;;;;19.90;98.05;99942.53;291968;33;860;-77
2023/09/06 00:21:51;;;;;;;385.90;309.17;;;;;;;19.90;97.98;99942.53;287053;34;3726;-78
2023/09/06 00:22:02;;;;;;;388.63;309.20;;;;;;;19.90;98.35;99942.53;285279;34;3711;-77
2023/09/06 00:22:13;;;;;;;388.50;306.52;;;;;;;19.91;98.27;99938.91;285339;34;5000;-77
2023/09/06 00:22:23;;;;;;;390.90;315.33;;;;;;;19.91;98.40;99938.91;287098;34;1237;-77
2023/09/06 00:22:34;;;;;;;387.60;313.67;;;;;;;19.90;98.30;99942.53;282647;34;5861;-77
2023/09/06 00:22:45;;;;;;;386.92;312.70;;;;;;;19.91;98.21;99937.09;281661;34;6451;-77
2023/09/06 00:22:57;;;;;;;386.23;312.63;;;;;;;19.90;98.31;99946.03;281482;35;1489;-77
2023/09/06 00:23:12;;;;;;;381.67;306.70;;;;;;;19.91;98.12;99944.22;279055;35;855;-77
2023/09/06 00:23:22;;;;;;;380.63;298.98;;;;;;;19.91;98.38;99938.91;281589;35;1398;-77
2023/09/06 00:23:33;;;;;;;382.77;299.73;;;;;;;19.88;97.92;99939.13;279498;35;7401;-77
2023/09/06 00:23:43;;;;;;;383.97;302.53;;;;;;;19.89;98.44;99938.16;275361;35;5727;-77
2023/09/06 00:23:54;;;;;;;385.63;308.60;;;;;;;19.89;98.71;99940.81;270043;36;1239;-77
2023/09/06 00:24:04;;;;;;;388.87;318.50;;;;;;;19.88;98.72;99939.13;270403;35;5594;-76
2023/09/06 00:24:15;;;;;;;388.77;316.38;;;;;;;19.88;98.92;99939.13;272308;35;6411;-76
2023/09/06 00:24:25;;;;;;;385.97;306.87;;;;;;;19.88;98.82;99939.13;273686;36;1197;-76
2023/09/06 00:24:36;;;;;;;382.20;298.45;;;;;;;19.86;98.90;99935.75;274547;35;7344;-77
2023/09/06 00:24:46;;;;;;;382.17;295.83;;;;;;;19.87;98.75;99937.44;274389;35;8247;-77
2023/09/06 00:26:33;;;;;;;371.61;280.44;;;;;;;19.84;99.00;99933.19;2497594;27;20487;-76
2023/09/06 00:26:44;;;;;;;383.20;306.33;;;;;;;19.84;98.86;99938.50;352897;28;883;-76
2023/09/06 00:26:58;;;;;;;384.40;309.30;;;;;;;19.85;98.96;99939.34;348521;28;1226;-77
2023/09/06 00:27:08;;;;;;;385.80;306.48;;;;;;;19.84;98.74;99937.66;346567;28;3083;-77
2023/09/06 00:27:18;;;;;;;383.98;301.65;;;;;;;19.83;98.89;99938.63;348571;28;2450;-77
2023/09/06 00:27:29;;;;;;;385.40;304.80;;;;;;;19.85;99.05;99939.34;350096;28;1250;-77
2023/09/06 00:27:41;;;;;;;384.48;304.90;;;;;;;19.83;98.79;99936.81;349963;28;1190;-77
2023/09/06 00:27:52;;;;;;;384.05;304.88;;;;;;;19.84;99.09;99937.66;347643;28;1129;-76
2023/09/06 00:28:06;;;;;;;382.02;301.30;;;;;;;19.83;99.04;99941.28;348084;28;924;-76
2023/09/06 00:28:17;;;;;;;381.40;301.25;;;;;;;19.82;99.07;99936.94;348592;28;1227;-76
2023/09/06 00:28:27;;;;;;;379.98;299.02;;;;;;;19.82;98.94;99935.13;351437;28;956;-76
2023/09/06 00:28:38;;;;;;;380.30;297.80;;;;;;;19.80;99.12;99931.72;350140;28;1223;-76
2023/09/06 00:28:49;;;;;;;382.27;301.92;;;;;;;19.80;99.27;99930.88;347564;28;949;-76
2023/09/06 00:29:00;;;;;;;383.45;302.80;;;;;;;19.80;99.12;99936.19;347105;28;1162;-76
2023/09/06 00:29:10;;;;;;;382.60;298.83;;;;;;;19.79;99.22;99937.16;348725;28;1201;-76
2023/09/06 00:29:21;;;;;;;381.83;293.60;;;;;;;19.80;99.26;99933.53;350019;28;1244;-76
2023/09/06 00:29:32;;;;;;;383.88;296.80;;;;;;;19.78;99.15;99938.97;348781;28;872;-76
2023/09/06 00:29:46;;;;;;;385.10;295.98;;;;;;;19.80;99.52;99934.38;350070;28;1420;-76
2023/09/06 00:29:56;;;;;;;382.60;297.95;;;;;;;19.80;99.49;99936.19;347692;28;1394;-76
2023/09/06 00:30:07;;;;;;;381.87;296.97;;;;;;;19.80;99.29;99933.53;350103;28;1190;-76
2023/09/06 00:30:18;;;;;;;380.67;295.00;;;;;;;19.80;99.21;99930.88;348712;28;1445;-77
2023/09/06 00:30:28;;;;;;;379.90;292.30;;;;;;;19.82;99.53;99934.28;348412;28;1150;-77
2023/09/06 00:30:39;;;;;;;381.05;294.88;;;;;;;19.82;99.03;99932.47;345838;28;879;-76
2023/09/06 00:30:50;;;;;;;380.97;297.43;;;;;;;19.81;99.31;99933.41;347398;28;900;-75
2023/09/06 00:31:00;;;;;;;385.30;302.17;;;;;;;19.81;99.47;99937.88;345869;28;1075;-75
2023/09/06 00:31:11;;;;;;;385.35;302.40;;;;;;;19.79;99.27;99939.81;345626;28;1621;-75
2023/09/06 00:31:21;;;;;;;384.97;300.63;;;;;;;19.79;99.29;99931.84;342770;28;1256;-76
2023/09/06 00:31:32;;;;;;;383.15;300.58;;;;;;;19.80;99.27;99930.88;346178;28;1677;-76
2023/09/06 00:31:42;;;;;;;384.03;304.17;;;;;;;19.80;99.11;99930.88;345875;28;1323;-75
2023/09/06 00:31:53;;;;;;;384.05;303.35;;;;;;;19.80;99.57;99925.56;344457;28;904;-75
2023/09/06 00:32:03;;;;;;;383.47;300.83;;;;;;;19.82;99.29;99934.28;344659;28;817;-75
2023/09/06 00:32:14;;;;;;;383.75;297.70;;;;;;;19.82;99.38;99934.28;345415;28;1011;-75
2023/09/06 00:32:25;;;;;;;384.30;302.00;;;;;;;19.80;98.87;99931.72;346119;28;1140;-75
2023/09/06 00:32:35;;;;;;;387.07;307.37;;;;;;;19.80;99.13;99931.72;347162;28;1180;-77
2023/09/06 00:32:46;;;;;;;387.20;309.48;;;;;;;19.81;99.05;99932.56;347479;28;874;-76
2023/09/06 00:32:58;;;;;;;389.23;309.52;;;;;;;19.82;98.90;99931.63;347891;28;1302;-76
2023/09/06 00:33:09;;;;;;;390.58;308.40;;;;;;;19.82;99.31;99935.13;346137;28;1508;-76
2023/09/06 00:33:21;;;;;;;389.60;304.92;;;;;;;19.81;99.29;99933.41;345846;28;1403;-75
2023/09/06 00:33:33;;;;;;;388.33;305.25;;;;;;;19.83;99.11;99933.31;343438;28;939;-75
2023/09/06 00:33:44;;;;;;;383.35;299.38;;;;;;;19.82;99.03;99928.97;345340;28;1350;-75
2023/09/06 00:33:54;;;;;;;382.15;296.85;;;;;;;19.83;99.46;99930.66;348221;28;1375;-75
2023/09/06 00:34:05;;;;;;;382.77;299.40;;;;;;;19.82;99.41;99929.81;344939;28;1357;-75
2023/09/06 00:34:16;;;;;;;384.48;307.83;;;;;;;19.83;99.38;99936.81;344506;28;987;-76
2023/09/06 00:34:26;;;;;;;385.33;309.50;;;;;;;19.83;99.43;99931.50;343660;28;1410;-76
2023/09/06 00:34:37;;;;;;;386.80;313.50;;;;;;;19.82;99.21;99928.97;341907;28;1178;-77
2023/09/06 00:34:48;;;;;;;387.02;312.38;;;;;;;19.81;99.08;99928.09;340423;28;1559;-77
2023/09/06 00:34:58;;;;;;;387.02;313.45;;;;;;;19.82;98.92;99934.28;343117;28;1220;-76
2023/09/06 00:35:09;;;;;;;385.90;308.73;;;;;;;19.81;98.96;99928.09;344662;28;1449;-76
2023/09/06 00:35:20;;;;;;;384.73;308.37;;;;;;;19.80;99.37;99930.88;345827;28;1353;-76
2023/09/06 00:35:32;;;;;;;384.10;307.65;;;;;;;19.80;99.09;99930.88;341851;28;1923;-76
2023/09/06 00:35:43;;;;;;;382.63;303.20;;;;;;;19.80;99.04;99936.19;338442;29;1307;-76
2023/09/06 00:35:54;;;;;;;381.85;301.30;;;;;;;19.82;99.04;99928.97;337891;29;1298;-76
2023/09/06 00:36:06;;;;;;;380.13;296.63;;;;;;;19.80;99.31;99926.41;339246;29;849;-76
2023/09/06 00:36:16;;;;;;;380.60;295.85;;;;;;;19.79;99.34;99926.53;336822;29;3243;-76
2023/09/06 00:36:29;;;;;;;383.70;305.38;;;;;;;19.79;99.07;99929.19;336478;29;1424;-76
2023/09/06 00:36:39;;;;;;;384.10;306.58;;;;;;;19.81;99.37;99933.41;338341;29;1608;-76
2023/09/06 00:36:50;;;;;;;383.60;309.08;;;;;;;19.80;99.26;99930.88;336621;29;1222;-76
2023/09/06 00:37:04;;;;;;;385.15;307.73;;;;;;;19.79;99.45;99923.88;332906;29;2059;-76
2023/09/06 00:37:14;;;;;;;385.10;303.13;;;;;;;19.79;99.45;99926.53;328972;29;1924;-76
2023/09/06 00:37:36;;;;;;;387.17;306.70;;;;;;;19.79;98.99;99923.88;328890;29;2147;-76
2023/09/06 00:37:46;;;;;;;383.10;304.50;;;;;;;19.82;99.07;99931.63;330134;29;1664;-77
2023/09/06 00:38:00;;;;;;;380.77;300.10;;;;;;;19.82;98.96;99929.81;327650;30;1733;-77
2023/09/06 00:38:11;;;;;;;381.00;299.70;;;;;;;19.83;98.92;99930.66;323656;30;1421;-77
2023/09/06 00:38:24;;;;;;;381.07;301.93;;;;;;;19.84;98.92;99932.34;323176;30;1532;-76
2023/09/06 00:38:35;;;;;;;381.67;304.52;;;;;;;19.85;99.17;99929.59;322937;30;5493;-76
2023/09/06 00:38:45;;;;;;;379.95;294.20;;;;;;;19.85;98.97;99928.72;321748;30;2172;-77
2023/09/06 00:38:59;;;;;;;379.23;291.27;;;;;;;19.86;99.11;99933.09;317834;30;2386;-77
2023/09/06 00:39:10;;;;;;;381.08;298.77;;;;;;;19.87;99.02;99937.44;320103;30;2343;-76
2023/09/06 00:39:20;;;;;;;385.35;310.65;;;;;;;19.86;99.10;99935.75;324490;30;1228;-76
2023/09/06 00:39:31;;;;;;;388.90;315.48;;;;;;;19.85;99.30;99928.72;325058;30;2478;-76
2023/09/06 00:39:42;;;;;;;388.55;310.73;;;;;;;19.85;99.19;99934.03;322345;30;2508;-77
2023/09/06 00:39:53;;;;;;;383.92;297.38;;;;;;;19.85;99.26;99928.72;321086;30;2490;-77
2023/09/06 00:40:17;;;;;;;381.40;296.90;;;;;;;19.85;99.24;99934.03;316383;31;964;-76
2023/09/06 00:40:29;;;;;;;383.30;302.92;;;;;;;19.86;98.98;99935.75;316844;31;2389;-76
2023/09/06 00:40:40;;;;;;;382.75;302.67;;;;;;;19.86;99.07;99930.44;318226;30;2321;-76
2023/09/06 00:40:51;;;;;;;382.90;303.73;;;;;;;19.85;99.24;99928.72;318411;31;1297;-76
2023/09/06 00:41:02;;;;;;;383.10;307.10;;;;;;;19.87;99.27;99932.13;318370;30;2857;-76
2023/09/06 00:41:12;;;;;;;381.80;303.75;;;;;;;19.85;98.83;99936.69;318614;30;3400;-76
2023/09/06 00:41:23;;;;;;;380.87;300.93;;;;;;;19.85;99.00;99928.72;316893;31;1434;-77
2023/09/06 00:41:34;;;;;;;381.17;301.52;;;;;;;19.86;98.86;99930.44;311408;31;1178;-76
2023/09/06 00:41:44;;;;;;;384.57;310.00;;;;;;;19.86;98.72;99931.28;309216;31;3111;-76
2023/09/06 00:41:55;;;;;;;385.83;314.23;;;;;;;19.87;99.20;99934.78;310178;31;2579;-76
2023/09/06 00:42:05;;;;;;;383.30;306.73;;;;;;;19.87;98.94;99937.44;311680;31;838;-76
2023/09/06 00:42:16;;;;;;;380.92;301.67;;;;;;;19.88;98.78;99928.50;311212;31;1624;-76
2023/09/06 00:42:30;;;;;;;380.20;300.80;;;;;;;19.89;98.70;99930.19;310609;31;2892;-76
2023/09/06 00:42:40;;;;;;;382.60;308.00;;;;;;;19.89;98.89;99930.19;308584;31;3013;-76
2023/09/06 00:43:03;;;;;;;385.52;311.02;;;;;;;19.89;99.17;99931.06;307248;32;1279;-76
2023/09/06 00:43:14;;;;;;;383.30;303.85;;;;;;;19.90;98.89;99926.59;310075;31;4173;-76
2023/09/06 00:43:24;;;;;;;381.33;297.60;;;;;;;19.90;98.77;99929.25;309445;31;4742;-76
2023/09/06 00:43:35;;;;;;;382.55;300.20;;;;;;;19.91;98.72;99929.13;304096;32;1320;-76
2023/09/06 00:43:45;;;;;;;382.50;300.30;;;;;;;19.92;98.84;99929.97;303875;32;5082;-77
2023/09/06 00:43:56;;;;;;;383.80;303.73;;;;;;;19.92;98.93;99929.97;303608;31;3879;-76
2023/09/06 00:44:08;;;;;;;383.80;306.97;;;;;;;19.92;98.97;99925.50;306258;32;1243;-76
2023/09/06 00:44:19;;;;;;;385.18;311.42;;;;;;;19.94;99.31;99933.34;307202;32;1352;-76
2023/09/06 00:44:29;;;;;;;383.75;307.17;;;;;;;19.94;99.16;99928.88;304156;32;2528;-76
2023/09/06 00:44:40;;;;;;;382.60;303.10;;;;;;;19.94;99.01;99933.34;304497;32;3245;-76
2023/09/06 00:44:51;;;;;;;380.35;299.45;;;;;;;19.94;99.23;99934.19;303944;32;1031;-76
2023/09/06 00:45:02;;;;;;;380.30;299.00;;;;;;;19.95;98.97;99935.03;302291;32;4423;-76
2023/09/06 00:45:12;;;;;;;383.23;305.85;;;;;;;19.96;98.86;99931.41;301312;32;5033;-76
2023/09/06 00:45:26;;;;;;;384.37;304.03;;;;;;;19.96;99.03;99930.56;299591;32;3410;-76
2023/09/06 00:45:37;;;;;;;383.63;308.15;;;;;;;19.96;99.23;99931.41;293024;33;898;-76
2023/09/06 00:45:50;;;;;;;383.20;313.55;;;;;;;19.96;98.90;99931.41;291541;33;4461;-76
2023/09/06 00:46:06;;;;;;;384.58;315.75;;;;;;;19.97;99.02;99927.78;292763;33;6844;-76
2023/09/06 00:46:18;;;;;;;381.83;308.40;;;;;;;19.95;98.71;99924.41;293288;33;5345;-76
2023/09/06 00:46:28;;;;;;;382.02;308.45;;;;;;;19.94;98.83;99928.03;288370;33;4060;-76
2023/09/06 00:46:39;;;;;;;383.30;310.53;;;;;;;19.95;98.87;99927.06;286035;33;3978;-76
2023/09/06 00:46:49;;;;;;;383.95;308.63;;;;;;;19.95;99.33;99927.06;286238;34;1360;-76
2023/09/06 00:46:59;;;;;;;384.40;309.53;;;;;;;19.95;98.97;99924.41;287789;34;5263;-76
2023/09/06 00:47:12;;;;;;;383.00;306.13;;;;;;;19.95;99.13;99929.72;284671;34;7230;-76
2023/09/06 00:47:23;;;;;;;382.65;308.83;;;;;;;19.96;99.05;99925.25;281567;35;1377;-76
2023/09/06 00:47:33;;;;;;;382.50;308.15;;;;;;;19.94;99.05;99920.91;276312;35;1440;-76
2023/09/06 00:47:44;;;;;;;384.33;306.90;;;;;;;19.95;99.16;99935.03;275841;35;8117;-76
2023/09/06 00:47:55;;;;;;;385.02;306.25;;;;;;;19.95;98.89;99927.06;273733;35;8630;-77
2023/09/06 00:48:06;;;;;;;384.42;301.76;;;;;;;19.95;99.25;99921.75;274604;36;844;-77
2023/09/06 00:49:44;;;;;;;371.88;281.94;;;;;;;19.97;98.87;99929.59;2501010;27;20273;-75
2023/09/06 00:49:55;;;;;;;385.40;304.30;;;;;;;19.95;98.86;99924.41;354417;27;1157;-77
2023/09/06 00:50:06;;;;;;;388.05;307.05;;;;;;;19.95;98.91;99929.72;352842;27;1164;-76
2023/09/06 00:50:17;;;;;;;388.55;314.63;;;;;;;19.94;98.99;99926.22;350209;28;1927;-75
2023/09/06 00:50:28;;;;;;;385.95;313.40;;;;;;;19.96;99.05;99925.25;346987;28;1276;-75
2023/09/06 00:50:38;;;;;;;385.08;312.75;;;;;;;19.94;98.98;99923.56;346145;28;840;-75
2023/09/06 00:50:53;;;;;;;384.00;309.77;;;;;;;19.95;99.04;99924.41;349859;28;1642;-75
2023/09/06 00:51:03;;;;;;;381.83;301.20;;;;;;;19.94;99.12;99922.72;348795;28;1354;-75
2023/09/06 00:51:14;;;;;;;380.35;299.63;;;;;;;19.94;99.21;99918.25;344629;28;1256;-77
2023/09/06 00:51:25;;;;;;;382.05;301.20;;;;;;;19.94;98.95;99922.72;344397;28;1239;-76
2023/09/06 00:51:36;;;;;;;384.45;308.65;;;;;;;19.94;99.21;99920.06;347540;28;1464;-76
2023/09/06 00:51:46;;;;;;;384.30;308.80;;;;;;;19.94;99.24;99922.72;348471;28;1416;-77
2023/09/06 00:51:57;;;;;;;381.17;300.23;;;;;;;19.94;98.99;99926.22;347303;28;889;-75
2023/09/06 00:52:07;;;;;;;380.98;298.90;;;;;;;19.94;99.29;99922.72;347280;28;1208;-75
2023/09/06 00:52:17;;;;;;;380.63;300.27;;;;;;;19.94;99.23;99926.22;345228;28;1932;-75
2023/09/06 00:52:28;;;;;;;381.63;303.83;;;;;;;19.94;99.10;99920.91;345152;28;1973;-75
2023/09/06 00:52:39;;;;;;;381.88;298.95;;;;;;;19.94;99.15;99920.06;345931;28;1496;-75
2023/09/06 00:52:51;;;;;;;381.42;295.52;;;;;;;19.94;98.91;99920.91;344583;28;868;-75
2023/09/06 00:53:01;;;;;;;382.80;300.20;;;;;;;19.95;99.22;99929.72;344534;28;1299;-75
2023/09/06 00:53:11;;;;;;;382.33;301.87;;;;;;;19.94;98.98;99923.56;344609;28;1307;-76
2023/09/06 00:53:22;;;;;;;382.70;301.13;;;;;;;19.94;99.16;99923.56;346617;28;1347;-76
2023/09/06 00:53:33;;;;;;;380.85;295.48;;;;;;;19.95;98.81;99919.09;345875;28;1398;-76
2023/09/06 00:53:43;;;;;;;381.20;297.50;;;;;;;19.95;99.11;99921.75;347225;28;1310;-76
2023/09/06 00:53:54;;;;;;;381.92;300.35;;;;;;;19.94;98.88;99918.25;347099;28;1487;-76
2023/09/06 00:54:04;;;;;;;384.00;300.23;;;;;;;19.96;99.32;99920.78;347331;28;1119;-76
2023/09/06 00:54:15;;;;;;;384.33;300.27;;;;;;;19.95;98.87;99919.09;345911;28;1196;-76
2023/09/06 00:54:25;;;;;;;383.23;298.47;;;;;;;19.95;99.13;99921.75;345923;28;2164;-76
2023/09/06 00:54:39;;;;;;;384.80;301.05;;;;;;;19.96;99.07;99920.78;343835;28;3208;-76
2023/09/06 00:54:49;;;;;;;385.58;306.02;;;;;;;19.96;98.90;99923.44;344632;28;886;-77
2023/09/06 00:55:01;;;;;;;388.58;309.27;;;;;;;19.95;99.32;99919.09;344636;28;1354;-77
2023/09/06 00:55:11;;;;;;;386.40;309.08;;;;;;;19.95;99.26;99919.09;347394;28;862;-76
2023/09/06 00:55:22;;;;;;;384.27;300.63;;;;;;;19.95;99.63;99919.09;345862;28;1018;-76
2023/09/06 00:55:33;;;;;;;380.10;294.10;;;;;;;19.95;99.25;99919.09;344648;28;849;-76
2023/09/06 00:55:44;;;;;;;379.67;290.13;;;;;;;19.96;99.06;99920.78;338019;29;1483;-78
2023/09/06 00:55:55;;;;;;;380.25;290.50;;;;;;;19.96;99.53;99918.13;338993;29;960;-76
2023/09/06 00:56:08;;;;;;;381.80;291.85;;;;;;;19.97;99.25;99918.97;338455;29;1139;-76
2023/09/06 00:56:19;;;;;;;382.92;298.60;;;;;;;19.96;99.39;99926.09;336686;29;1172;-76
2023/09/06 00:56:29;;;;;;;383.40;296.90;;;;;;;19.98;99.38;99923.31;337993;29;1238;-76
2023/09/06 00:56:40;;;;;;;382.73;295.45;;;;;;;19.97;99.49;99911.00;338725;29;920;-77
2023/09/06 00:56:50;;;;;;;382.13;294.27;;;;;;;19.97;99.08;99916.31;340333;29;1385;-76
2023/09/06 00:57:00;;;;;;;382.63;303.50;;;;;;;19.96;99.12;99912.81;339087;29;1387;-76